Time;durP1;ratioP1;P1;durP2;ratioP2;P2;SDS_P1;SDS_P2;PMS_P1;PMS_P2;Temp;Humidity;BMP_temperature;BMP_pressure;BME280_temperature;BME280_humidity;BME280_pressure;Samples;Min_cycle;Max_cycle;Signal;HPM_P1;HPM_P2
2022/04/13 00:00:48;;;;;;;23.90;14.43;;;12.80;99.90;;;;;;5021530;28;20041;-70
2022/04/13 00:03:13;;;;;;;24.92;14.90;;;12.70;99.90;;;;;;5003776;28;20148;-70
2022/04/13 00:05:39;;;;;;;22.08;14.68;;;12.60;99.90;;;;;;5023763;28;20065;-70
2022/04/13 00:08:07;;;;;;;25.00;15.57;;;12.50;99.90;;;;;;5002852;28;20493;-71
2022/04/13 00:10:34;;;;;;;25.52;15.43;;;12.50;99.90;;;;;;5022491;28;20042;-70
2022/04/13 00:13:00;;;;;;;23.15;16.08;;;12.40;99.90;;;;;;5002523;28;20038;-70
2022/04/13 00:15:25;;;;;;;23.73;15.75;;;12.40;99.90;;;;;;5023734;28;20403;-70
2022/04/13 00:17:51;;;;;;;22.67;15.45;;;12.30;99.90;;;;;;5022429;28;20041;-69
2022/04/13 00:20:17;;;;;;;26.77;16.92;;;12.30;99.90;;;;;;5026813;28;20568;-70
2022/04/13 00:22:42;;;;;;;27.83;16.50;;;12.30;99.90;;;;;;5022926;28;20050;-70
2022/04/13 00:25:08;;;;;;;25.25;16.55;;;12.30;99.90;;;;;;5007294;28;20040;-69
2022/04/13 00:27:34;;;;;;;25.55;17.38;;;12.30;99.90;;;;;;5003425;28;20041;-70
2022/04/13 00:29:59;;;;;;;25.42;16.98;;;12.20;99.90;;;;;;5026395;28;20524;-70
2022/04/13 00:32:25;;;;;;;22.70;16.55;;;12.20;99.90;;;;;;5005855;28;20052;-70
2022/04/13 00:34:51;;;;;;;27.63;18.35;;;12.20;99.90;;;;;;5005959;28;20497;-70
2022/04/13 00:37:17;;;;;;;28.17;16.98;;;12.20;99.90;;;;;;5022228;28;20041;-70
2022/04/13 00:39:43;;;;;;;29.73;16.90;;;12.10;99.90;;;;;;5023462;28;20038;-70
2022/04/13 00:42:09;;;;;;;25.70;16.95;;;12.10;99.90;;;;;;5006101;28;20073;-70
2022/04/13 00:44:35;;;;;;;29.17;17.17;;;12.00;99.90;;;;;;5004533;28;20111;-69
2022/04/13 00:47:06;;;;;;;24.05;17.05;;;12.00;99.90;;;;;;5007443;28;20533;-71
2022/04/13 00:49:31;;;;;;;25.95;17.02;;;12.00;99.90;;;;;;5024333;28;20099;-69
2022/04/13 00:51:59;;;;;;;24.83;16.35;;;11.90;99.90;;;;;;5003460;28;20445;-69
2022/04/13 00:54:28;;;;;;;26.30;17.45;;;11.90;99.90;;;;;;5006756;28;20087;-70
2022/04/13 00:56:55;;;;;;;27.05;17.83;;;11.90;99.90;;;;;;5001365;28;20119;-70
2022/04/13 00:59:24;;;;;;;22.05;15.88;;;11.80;99.90;;;;;;5023847;28;20761;-70
2022/04/13 01:01:53;;;;;;;29.08;17.02;;;11.80;99.90;;;;;;5024951;28;20048;-70
2022/04/13 01:04:19;;;;;;;27.83;18.88;;;11.80;99.90;;;;;;5023895;28;20041;-70
2022/04/13 01:06:45;;;;;;;26.58;17.77;;;11.80;99.90;;;;;;5025504;28;20525;-69
2022/04/13 01:09:12;;;;;;;26.90;17.40;;;11.80;99.90;;;;;;5002893;28;20128;-70
2022/04/13 01:11:38;;;;;;;29.77;17.35;;;11.80;99.90;;;;;;5005546;28;20101;-70
2022/04/13 01:14:04;;;;;;;30.27;18.35;;;11.80;99.90;;;;;;5022292;28;20048;-70
2022/04/13 01:16:30;;;;;;;33.13;18.70;;;11.90;99.90;;;;;;5025368;28;20073;-70
2022/04/13 01:18:56;;;;;;;34.67;18.45;;;11.90;99.90;;;;;;5021205;28;21034;-70
2022/04/13 01:21:45;;;;;;;29.65;17.98;;;11.90;99.90;;;;;;5004732;28;20049;-70
2022/04/13 01:24:11;;;;;;;26.55;17.40;;;12.00;99.90;;;;;;5022161;28;20056;-70
2022/04/13 01:26:37;;;;;;;26.50;17.00;;;11.90;99.90;;;;;;5004448;28;20092;-70
2022/04/13 01:29:03;;;;;;;30.60;18.40;;;11.90;99.90;;;;;;5002442;28;20053;-70
2022/04/13 01:31:29;;;;;;;27.33;17.38;;;12.00;99.90;;;;;;5005639;28;20609;-70
2022/04/13 01:33:56;;;;;;;33.35;18.95;;;11.90;99.90;;;;;;5006366;28;20136;-69
2022/04/13 01:36:21;;;;;;;30.58;18.95;;;11.90;99.90;;;;;;5023192;28;20049;-68
2022/04/13 01:38:47;;;;;;;28.67;19.80;;;11.90;99.90;;;;;;5022695;28;20405;-69
2022/04/13 01:41:13;;;;;;;29.10;18.17;;;11.90;99.90;;;;;;5021086;28;20041;-69
2022/04/13 01:43:38;;;;;;;28.65;18.50;;;11.90;99.90;;;;;;5004017;28;20046;-69
2022/04/13 01:46:04;;;;;;;31.13;19.30;;;11.90;99.90;;;;;;5022644;28;20041;-68
2022/04/13 01:48:31;;;;;;;30.33;20.27;;;12.00;99.90;;;;;;5025432;28;20041;-69
2022/04/13 01:50:58;;;;;;;29.27;19.38;;;12.00;99.90;;;;;;5023374;28;20052;-69
2022/04/13 01:53:25;;;;;;;28.58;17.67;;;12.00;99.90;;;;;;5004533;28;20048;-69
2022/04/13 01:55:51;;;;;;;28.15;18.75;;;12.00;99.90;;;;;;5008091;28;20045;-69
2022/04/13 01:58:16;;;;;;;28.00;18.92;;;12.00;99.90;;;;;;5004787;28;20397;-69
2022/04/13 02:00:42;;;;;;;29.92;19.25;;;12.00;99.90;;;;;;5019767;28;20390;-69
2022/04/13 02:03:08;;;;;;;31.48;19.65;;;12.00;99.90;;;;;;5023473;28;20054;-68
2022/04/13 02:05:34;;;;;;;29.83;20.42;;;11.90;99.90;;;;;;5020656;28;20052;-69
2022/04/13 02:08:00;;;;;;;33.75;18.20;;;11.90;99.90;;;;;;5023582;28;20045;-69
2022/04/13 02:10:25;;;;;;;28.17;18.17;;;11.90;99.90;;;;;;5006300;28;20042;-68
2022/04/13 02:12:51;;;;;;;26.58;17.25;;;11.90;99.90;;;;;;4986708;28;20033;-69
2022/04/13 02:15:17;;;;;;;26.55;17.85;;;11.80;99.90;;;;;;5021208;28;20132;-70
2022/04/13 02:17:43;;;;;;;27.73;17.85;;;11.80;99.90;;;;;;5022605;28;20512;-69
2022/04/13 02:20:10;;;;;;;27.38;17.95;;;11.80;99.90;;;;;;5023779;28;20444;-69
2022/04/13 02:22:36;;;;;;;31.33;17.90;;;11.80;99.90;;;;;;5004872;28;20068;-69
2022/04/13 02:25:03;;;;;;;29.52;17.52;;;11.80;99.90;;;;;;5021826;28;21473;-70
2022/04/13 02:27:29;;;;;;;27.30;17.88;;;11.80;99.90;;;;;;5005813;28;20041;-69
2022/04/13 02:29:54;;;;;;;26.83;17.35;;;11.70;99.90;;;;;;5022462;28;20048;-68
2022/04/13 02:32:20;;;;;;;29.75;18.58;;;11.70;99.90;;;;;;5002022;28;20048;-69
2022/04/13 02:34:48;;;;;;;33.67;19.90;;;11.70;99.90;;;;;;5002933;28;20041;-70
2022/04/13 02:37:15;;;;;;;27.92;19.08;;;11.60;99.90;;;;;;5023788;28;20045;-70
2022/04/13 02:39:40;;;;;;;27.45;19.42;;;11.60;99.90;;;;;;5022177;28;20401;-69
2022/04/13 02:42:06;;;;;;;29.45;19.58;;;11.60;99.90;;;;;;5019371;28;20045;-70
2022/04/13 02:44:32;;;;;;;28.17;19.52;;;11.50;99.90;;;;;;5003894;28;20041;-69
2022/04/13 02:46:58;;;;;;;37.35;19.58;;;11.50;99.90;;;;;;5023712;28;20064;-69
2022/04/13 02:49:23;;;;;;;31.10;19.33;;;11.50;99.90;;;;;;5005004;28;20057;-70
2022/04/13 02:51:49;;;;;;;32.58;19.73;;;11.40;99.90;;;;;;5005368;28;20713;-69
2022/04/13 02:54:15;;;;;;;29.08;20.00;;;11.30;99.90;;;;;;5003105;28;20406;-69
2022/04/13 02:56:40;;;;;;;31.63;20.42;;;11.30;99.90;;;;;;5020021;28;20140;-69
2022/04/13 02:59:06;;;;;;;36.97;21.75;;;11.30;99.90;;;;;;5002630;28;20061;-70
2022/04/13 03:01:31;;;;;;;33.08;20.40;;;11.20;99.90;;;;;;5022566;28;20489;-70
2022/04/13 03:03:57;;;;;;;32.10;20.77;;;11.20;99.90;;;;;;5022746;28;20053;-69
2022/04/13 03:06:22;;;;;;;34.55;20.67;;;11.20;99.90;;;;;;5003064;28;20672;-70
2022/04/13 03:08:48;;;;;;;29.52;19.48;;;11.10;99.90;;;;;;5021882;28;20550;-69
2022/04/13 03:11:14;;;;;;;32.83;20.35;;;11.10;99.90;;;;;;5021636;28;20060;-70
2022/04/13 03:13:39;;;;;;;29.48;19.38;;;11.10;99.90;;;;;;5001881;28;20111;-69
2022/04/13 03:16:05;;;;;;;34.13;19.75;;;11.10;99.90;;;;;;5022309;28;20064;-70
2022/04/13 03:18:30;;;;;;;27.63;20.02;;;11.10;99.90;;;;;;5021276;28;20053;-69
2022/04/13 03:20:56;;;;;;;28.35;19.40;;;11.10;99.90;;;;;;5000642;28;20128;-69
2022/04/13 03:23:22;;;;;;;31.85;20.33;;;11.10;99.90;;;;;;5004277;28;20033;-70
2022/04/13 03:25:48;;;;;;;30.17;18.48;;;11.10;99.90;;;;;;5004080;28;20049;-69
2022/04/13 03:28:14;;;;;;;28.13;19.65;;;11.10;99.90;;;;;;5002369;28;20048;-69
2022/04/13 03:30:40;;;;;;;31.30;18.67;;;11.10;99.90;;;;;;5002500;28;20041;-69
2022/04/13 03:33:06;;;;;;;31.05;19.77;;;11.10;99.90;;;;;;5021965;28;20045;-70
2022/04/13 03:35:31;;;;;;;33.95;19.60;;;11.10;99.90;;;;;;5021698;28;20137;-69
2022/04/13 03:37:57;;;;;;;33.33;19.13;;;11.20;99.90;;;;;;5019877;28;20061;-70
2022/04/13 03:40:23;;;;;;;30.77;18.20;;;11.20;99.90;;;;;;5021804;28;20077;-70
2022/04/13 03:42:49;;;;;;;30.60;18.30;;;11.20;99.90;;;;;;5021315;28;20037;-70
2022/04/13 03:45:14;;;;;;;30.67;18.23;;;11.30;99.90;;;;;;5022123;28;20053;-69
2022/04/13 03:47:41;;;;;;;28.20;18.65;;;11.30;99.90;;;;;;5022972;28;20046;-69
2022/04/13 03:50:08;;;;;;;31.45;19.38;;;11.30;99.90;;;;;;5005606;28;20038;-70
2022/04/13 03:52:37;;;;;;;26.77;18.23;;;11.30;99.90;;;;;;5026274;28;20049;-69
2022/04/13 03:55:06;;;;;;;31.48;18.63;;;11.30;99.90;;;;;;5005531;28;20092;-70
2022/04/13 03:57:32;;;;;;;25.83;18.25;;;11.30;99.90;;;;;;5025515;28;20425;-69
2022/04/13 03:59:57;;;;;;;27.35;18.10;;;11.40;99.90;;;;;;5003943;28;20611;-69
2022/04/13 04:02:23;;;;;;;31.98;18.42;;;11.40;99.90;;;;;;5024764;28;20041;-69
2022/04/13 04:04:49;;;;;;;28.13;18.33;;;11.40;99.90;;;;;;5021449;28;20491;-69
2022/04/13 04:07:16;;;;;;;25.75;18.38;;;11.40;99.90;;;;;;5004211;28;20927;-70
2022/04/13 04:09:42;;;;;;;30.02;18.35;;;11.40;99.90;;;;;;5018808;28;20046;-70
2022/04/13 04:12:08;;;;;;;32.80;18.88;;;11.40;99.90;;;;;;5007525;28;20144;-70
2022/04/13 04:14:34;;;;;;;31.98;20.55;;;11.40;99.90;;;;;;5024488;28;20472;-70
2022/04/13 04:16:59;;;;;;;33.28;19.95;;;11.40;99.90;;;;;;5005418;28;20053;-70
2022/04/13 04:19:25;;;;;;;32.20;19.00;;;11.40;99.90;;;;;;5007561;28;20060;-69
2022/04/13 04:21:51;;;;;;;32.92;19.50;;;11.40;99.90;;;;;;5002983;28;20214;-70
2022/04/13 04:24:16;;;;;;;33.78;19.60;;;11.40;99.90;;;;;;5006305;28;20041;-70
2022/04/13 04:26:43;;;;;;;32.90;20.63;;;11.30;99.90;;;;;;5008257;28;20041;-70
2022/04/13 04:29:09;;;;;;;30.85;19.83;;;11.40;99.90;;;;;;5023688;28;20050;-70
2022/04/13 04:31:50;;;;;;;28.33;18.98;;;11.30;99.90;;;;;;5025441;28;20513;-70
2022/04/13 04:34:22;;;;;;;31.80;20.13;;;11.30;99.90;;;;;;5023137;28;20533;-70
2022/04/13 04:36:47;;;;;;;37.67;21.00;;;11.30;99.90;;;;;;5006176;28;20076;-70
2022/04/13 04:39:13;;;;;;;31.63;19.60;;;11.30;99.90;;;;;;5007206;28;20061;-70
2022/04/13 04:41:42;;;;;;;28.33;19.98;;;11.30;99.90;;;;;;5005546;28;20541;-70
2022/04/13 04:44:09;;;;;;;35.78;20.73;;;11.30;99.90;;;;;;5002248;28;20034;-70
2022/04/13 04:46:35;;;;;;;35.88;21.25;;;11.30;99.90;;;;;;5024182;28;20468;-70
2022/04/13 04:49:03;;;;;;;33.38;21.45;;;11.30;99.90;;;;;;5023701;28;20088;-70
2022/04/13 04:51:30;;;;;;;34.10;20.02;;;11.30;99.90;;;;;;5006395;28;20057;-70
2022/04/13 04:53:56;;;;;;;30.52;20.05;;;11.20;99.90;;;;;;5025290;28;20136;-71
2022/04/13 04:56:22;;;;;;;34.45;19.77;;;11.20;99.90;;;;;;5005037;28;20045;-71
2022/04/13 04:58:48;;;;;;;36.15;19.83;;;11.20;99.90;;;;;;5007268;28;20045;-70
2022/04/13 05:01:13;;;;;;;33.40;19.95;;;11.20;99.90;;;;;;5004725;28;20501;-70
2022/04/13 05:03:39;;;;;;;37.00;21.33;;;11.20;99.90;;;;;;5024010;28;20042;-69
2022/04/13 05:06:04;;;;;;;33.08;20.38;;;11.20;99.90;;;;;;5023559;28;20046;-70
2022/04/13 05:08:30;;;;;;;32.00;20.25;;;11.20;99.90;;;;;;5005089;28;20065;-70
2022/04/13 05:10:55;;;;;;;31.42;20.38;;;11.20;99.90;;;;;;5001660;28;20050;-70
2022/04/13 05:13:21;;;;;;;30.30;21.38;;;11.20;99.90;;;;;;5003537;28;20473;-70
2022/04/13 05:15:47;;;;;;;36.55;20.10;;;11.20;99.90;;;;;;5007417;28;20046;-70
2022/04/13 05:18:13;;;;;;;36.03;21.85;;;11.20;99.90;;;;;;5019158;28;20037;-70
2022/04/13 05:20:39;;;;;;;31.85;20.88;;;11.20;99.90;;;;;;5028441;28;20140;-71
2022/04/13 05:23:05;;;;;;;36.72;21.95;;;11.20;99.90;;;;;;5026056;28;20500;-71
2022/04/13 05:25:30;;;;;;;29.55;21.40;;;11.20;99.90;;;;;;5025725;28;20050;-71
2022/04/13 05:27:56;;;;;;;34.58;20.08;;;11.20;99.90;;;;;;5021934;28;20041;-71
2022/04/13 05:30:22;;;;;;;31.90;21.02;;;11.30;99.90;;;;;;5025206;28;20045;-72
2022/04/13 05:32:57;;;;;;;34.35;21.83;;;11.30;99.90;;;;;;5019525;28;20383;-71
2022/04/13 05:35:25;;;;;;;35.42;20.90;;;11.30;99.90;;;;;;5022977;28;20037;-72
2022/04/13 05:37:51;;;;;;;30.45;19.95;;;11.30;99.90;;;;;;5026635;28;20572;-71
2022/04/13 05:40:17;;;;;;;32.38;21.25;;;11.40;99.90;;;;;;5008216;28;21120;-72
2022/04/13 05:42:43;;;;;;;30.85;20.73;;;11.40;99.90;;;;;;5027485;28;20161;-71
2022/04/13 05:45:10;;;;;;;31.83;20.27;;;11.40;99.90;;;;;;5026375;28;20077;-73
2022/04/13 05:47:37;;;;;;;32.35;19.85;;;11.40;99.90;;;;;;5025923;28;20193;-71
2022/04/13 05:50:06;;;;;;;37.85;21.35;;;11.50;99.90;;;;;;5005550;28;20123;-71
2022/04/13 05:52:32;;;;;;;38.45;21.13;;;11.50;99.90;;;;;;5028085;28;20049;-69
2022/04/13 05:54:58;;;;;;;32.42;19.88;;;11.50;99.90;;;;;;5005798;28;20391;-70
2022/04/13 05:57:24;;;;;;;32.75;21.15;;;11.50;99.90;;;;;;5008013;28;20045;-70
2022/04/13 05:59:49;;;;;;;33.97;21.75;;;11.50;99.90;;;;;;5009737;28;20467;-70
2022/04/13 06:02:15;;;;;;;27.95;19.77;;;11.60;99.90;;;;;;5023701;28;20045;-70
2022/04/13 06:04:41;;;;;;;31.20;18.33;;;11.50;99.90;;;;;;5023507;28;20501;-71
2022/04/13 06:07:07;;;;;;;31.48;19.88;;;11.50;99.90;;;;;;5008384;28;20034;-70
2022/04/13 06:09:33;;;;;;;30.27;19.17;;;11.50;99.90;;;;;;5027660;28;20123;-69
2022/04/13 06:11:59;;;;;;;30.05;19.83;;;11.50;99.90;;;;;;5028329;28;20049;-70
2022/04/13 06:14:24;;;;;;;31.25;19.30;;;11.60;99.90;;;;;;5004920;28;20045;-70
2022/04/13 06:16:50;;;;;;;31.58;20.50;;;11.60;99.90;;;;;;5007032;28;20040;-69
2022/04/13 06:19:16;;;;;;;33.42;20.52;;;11.60;99.90;;;;;;5001617;28;20536;-70
2022/04/13 06:21:42;;;;;;;34.60;20.67;;;11.60;99.90;;;;;;5007953;28;20069;-70
2022/04/13 06:24:08;;;;;;;36.90;22.27;;;11.60;99.90;;;;;;4998756;28;20106;-69
2022/04/13 06:26:33;;;;;;;34.65;19.90;;;11.60;99.90;;;;;;5023755;28;20041;-69
2022/04/13 06:28:59;;;;;;;32.20;21.00;;;11.60;99.90;;;;;;5021639;28;20092;-70
2022/04/13 06:31:25;;;;;;;42.08;26.33;;;11.60;99.90;;;;;;5024310;28;20124;-70
2022/04/13 06:33:52;;;;;;;41.80;24.90;;;11.70;99.90;;;;;;5014892;28;20041;-70
2022/04/13 06:36:18;;;;;;;37.97;25.38;;;11.60;99.90;;;;;;5024907;28;20071;-71
2022/04/13 06:38:44;;;;;;;38.13;26.77;;;11.70;99.90;;;;;;5010663;28;20128;-71
2022/04/13 06:41:10;;;;;;;41.63;26.08;;;11.70;99.90;;;;;;5001763;28;20133;-71
2022/04/13 06:43:36;;;;;;;37.72;23.20;;;11.80;99.90;;;;;;4999392;28;20046;-72
2022/04/13 06:46:02;;;;;;;37.92;25.58;;;11.80;99.90;;;;;;5007426;28;20104;-72
2022/04/13 06:48:27;;;;;;;36.13;24.67;;;11.80;99.90;;;;;;5001932;28;20046;-73
2022/04/13 06:50:53;;;;;;;32.60;21.80;;;11.90;99.90;;;;;;5005162;28;20041;-72
2022/04/13 06:53:19;;;;;;;36.92;21.90;;;11.90;99.90;;;;;;5003084;28;20052;-72
2022/04/13 06:55:47;;;;;;;34.72;21.70;;;12.00;99.90;;;;;;5003131;28;20054;-72
2022/04/13 06:58:16;;;;;;;34.92;21.70;;;12.10;99.90;;;;;;5002868;28;20045;-72
2022/04/13 07:00:42;;;;;;;27.10;19.30;;;12.20;99.90;;;;;;5004435;28;20038;-72
2022/04/13 07:03:09;;;;;;;31.13;20.13;;;12.20;99.90;;;;;;5007960;28;20069;-72
2022/04/13 07:05:34;;;;;;;28.38;18.65;;;12.30;99.90;;;;;;5004297;28;20042;-71
2022/04/13 07:08:02;;;;;;;27.17;19.63;;;12.40;99.90;;;;;;5005275;28;20124;-71
2022/04/13 07:10:32;;;;;;;28.58;18.67;;;12.50;99.90;;;;;;4999322;28;20038;-72
2022/04/13 07:12:58;;;;;;;29.20;17.65;;;12.60;99.90;;;;;;4997698;28;20066;-72
2022/04/13 07:15:24;;;;;;;25.80;17.45;;;12.70;99.90;;;;;;5003143;28;20065;-72
2022/04/13 07:17:50;;;;;;;30.90;17.88;;;12.80;99.90;;;;;;5001528;28;20074;-71
2022/04/13 07:20:17;;;;;;;28.08;17.30;;;13.00;99.90;;;;;;5010063;28;20042;-72
2022/04/13 07:22:44;;;;;;;25.67;16.05;;;13.10;99.90;;;;;;5008163;28;20518;-71
2022/04/13 07:25:09;;;;;;;30.60;16.95;;;13.20;99.90;;;;;;5004211;28;20046;-71
2022/04/13 07:27:35;;;;;;;25.70;14.93;;;13.30;99.90;;;;;;5012084;28;20504;-71
2022/04/13 07:30:02;;;;;;;29.00;16.90;;;13.40;99.90;;;;;;5004819;28;20057;-71
2022/04/13 07:32:27;;;;;;;29.05;16.88;;;13.60;99.90;;;;;;5010537;28;20062;-71
2022/04/13 07:34:53;;;;;;;20.27;15.02;;;13.90;99.90;;;;;;5009205;28;20070;-71
2022/04/13 07:37:19;;;;;;;27.27;14.60;;;14.10;99.90;;;;;;5007213;28;20085;-71
2022/04/13 07:39:44;;;;;;;23.48;14.38;;;14.30;99.90;;;;;;5007337;28;20140;-71
2022/04/13 07:42:10;;;;;;;21.73;12.68;;;14.60;99.90;;;;;;5010003;28;20050;-71
2022/04/13 07:44:35;;;;;;;24.88;13.02;;;14.70;99.90;;;;;;5011088;28;20138;-70
2022/04/13 07:47:01;;;;;;;21.58;11.70;;;14.80;99.90;;;;;;5011827;28;20057;-71
2022/04/13 07:49:27;;;;;;;21.45;12.63;;;14.90;99.90;;;;;;5010762;28;20045;-71
2022/04/13 07:51:52;;;;;;;18.30;11.82;;;15.00;99.90;;;;;;5007258;28;20417;-71
2022/04/13 07:54:18;;;;;;;23.15;12.10;;;15.10;99.90;;;;;;5008941;28;20133;-71
2022/04/13 07:56:43;;;;;;;19.23;11.40;;;15.30;99.90;;;;;;5011904;28;20604;-71
2022/04/13 07:59:09;;;;;;;19.88;12.13;;;15.30;99.90;;;;;;5010938;28;20050;-71
2022/04/13 08:01:34;;;;;;;21.60;12.18;;;15.40;99.90;;;;;;5011920;28;20485;-71
2022/04/13 08:04:00;;;;;;;23.50;12.85;;;15.40;99.90;;;;;;5005457;28;20057;-71
2022/04/13 08:06:26;;;;;;;19.20;11.77;;;15.50;99.90;;;;;;5008416;28;20144;-71
2022/04/13 08:08:52;;;;;;;19.05;11.75;;;15.40;99.90;;;;;;5009471;28;20046;-70
2022/04/13 08:11:18;;;;;;;23.65;12.02;;;15.30;99.90;;;;;;5006708;28;20045;-74
2022/04/13 08:13:43;;;;;;;21.02;12.02;;;15.10;99.90;;;;;;5008353;28;20096;-76
2022/04/13 08:16:09;;;;;;;25.88;13.45;;;15.00;99.90;;;;;;5004191;28;20070;-76
2022/04/13 08:18:35;;;;;;;22.55;12.05;;;14.90;99.90;;;;;;5002978;28;20100;-77
2022/04/13 08:21:02;;;;;;;19.70;11.63;;;14.80;99.90;;;;;;5006850;28;20038;-75
2022/04/13 08:23:28;;;;;;;24.13;13.40;;;14.70;99.90;;;;;;5010365;28;20120;-75
2022/04/13 08:25:53;;;;;;;19.77;11.98;;;14.70;99.90;;;;;;5007733;28;20145;-75
2022/04/13 08:28:19;;;;;;;18.42;11.65;;;14.70;99.90;;;;;;5004342;28;20111;-75
2022/04/13 08:30:45;;;;;;;19.90;11.10;;;14.80;99.90;;;;;;5008607;28;20052;-75
2022/04/13 08:33:10;;;;;;;19.90;11.15;;;15.00;99.90;;;;;;5004601;28;20512;-74
2022/04/13 08:35:36;;;;;;;20.52;11.60;;;15.10;99.90;;;;;;5005979;28;20074;-75
2022/04/13 08:38:01;;;;;;;19.20;12.60;;;15.20;99.90;;;;;;5009517;28;20456;-74
2022/04/13 08:40:31;;;;;;;24.52;11.00;;;15.40;99.90;;;;;;5006730;28;20501;-74
2022/04/13 08:43:10;;;;;;;19.60;11.05;;;15.60;99.90;;;;;;5004492;28;20050;-74
2022/04/13 08:45:53;;;;;;;18.33;10.65;;;15.70;99.90;;;;;;4994416;28;20458;-70
2022/04/13 08:48:23;;;;;;;20.33;10.77;;;15.70;99.90;;;;;;4979149;28;20164;-71
2022/04/13 08:50:55;;;;;;;22.90;11.18;;;15.80;99.90;;;;;;5006373;28;20064;-71
2022/04/13 08:53:24;;;;;;;18.10;9.52;;;15.90;99.90;;;;;;5010363;28;20050;-71
2022/04/13 08:55:53;;;;;;;15.95;9.95;;;15.90;99.90;;;;;;5009605;28;20121;-71
2022/04/13 08:58:49;;;;;;;20.17;9.93;;;15.90;99.90;;;;;;5010116;28;20549;-72
2022/04/13 09:01:40;;;;;;;17.13;8.88;;;15.90;99.90;;;;;;5005834;28;20101;-71
2022/04/13 09:04:10;;;;;;;17.67;9.77;;;16.00;99.90;;;;;;5008085;28;20054;-73
2022/04/13 09:06:38;;;;;;;22.40;10.60;;;16.00;99.90;;;;;;5007320;28;20041;-71
2022/04/13 09:09:12;;;;;;;18.92;10.27;;;16.10;99.90;;;;;;5009640;28;20057;-72
2022/04/13 09:11:39;;;;;;;17.42;9.38;;;16.10;99.90;;;;;;5010239;28;20046;-71
2022/04/13 09:14:07;;;;;;;17.55;10.02;;;16.20;99.90;;;;;;5006059;28;20529;-71
2022/04/13 09:16:34;;;;;;;17.13;11.02;;;16.20;99.90;;;;;;5007683;28;20069;-71
2022/04/13 09:19:02;;;;;;;20.00;10.80;;;16.10;99.90;;;;;;5004370;28;20040;-70
2022/04/13 09:21:31;;;;;;;18.40;9.63;;;16.20;99.90;;;;;;5005253;28;20662;-71
2022/04/13 09:23:58;;;;;;;15.20;9.40;;;16.20;99.90;;;;;;5006282;28;20080;-70
2022/04/13 09:26:25;;;;;;;18.25;10.35;;;16.20;99.90;;;;;;5003859;28;20149;-72
2022/04/13 09:28:51;;;;;;;18.23;9.70;;;16.10;99.90;;;;;;5007924;28;20096;-71
2022/04/13 09:31:16;;;;;;;18.13;10.30;;;16.30;99.90;;;;;;5005549;28;20061;-71
2022/04/13 09:33:43;;;;;;;18.90;10.70;;;16.40;99.90;;;;;;5005361;28;20104;-72
2022/04/13 09:36:08;;;;;;;23.38;11.82;;;16.50;99.90;;;;;;5006671;28;20132;-72
2022/04/13 09:38:35;;;;;;;19.40;11.05;;;16.60;99.90;;;;;;5003592;28;20125;-72
2022/04/13 09:41:11;;;;;;;17.27;10.88;;;16.70;99.90;;;;;;5014628;28;20095;-73
2022/04/13 09:43:37;;;;;;;22.75;11.02;;;16.70;99.90;;;;;;5026507;28;20048;-72
2022/04/13 09:46:03;;;;;;;18.83;8.40;;;16.80;99.90;;;;;;5008977;28;20049;-71
2022/04/13 09:48:29;;;;;;;18.88;9.23;;;16.70;99.90;;;;;;5026846;28;20067;-72
2022/04/13 09:51:00;;;;;;;15.77;8.50;;;16.70;99.90;;;;;;5029282;28;20553;-72
2022/04/13 09:53:26;;;;;;;15.20;8.77;;;16.80;99.90;;;;;;5028071;28;20536;-72
2022/04/13 09:55:55;;;;;;;18.35;8.32;;;16.90;99.90;;;;;;5011821;28;20140;-71
2022/04/13 09:58:22;;;;;;;17.75;8.77;;;16.90;99.90;;;;;;5007553;28;20057;-71
2022/04/13 10:00:50;;;;;;;15.15;8.68;;;16.80;99.90;;;;;;5004075;28;20490;-73
2022/04/13 10:03:23;;;;;;;17.98;8.68;;;16.80;99.90;;;;;;5007989;28;20045;-72
2022/04/13 10:05:59;;;;;;;17.35;8.65;;;16.90;99.90;;;;;;5009264;28;20056;-72
2022/04/13 10:08:26;;;;;;;31.92;9.05;;;16.70;99.90;;;;;;5007242;28;20067;-72
2022/04/13 10:10:57;;;;;;;21.63;8.60;;;16.70;99.90;;;;;;5003823;28;20120;-72
2022/04/13 10:13:40;;;;;;;18.02;9.35;;;16.60;99.90;;;;;;5009092;28;20088;-72
2022/04/13 10:16:11;;;;;;;16.05;7.90;;;16.50;99.90;;;;;;5005834;28;20046;-72
2022/04/13 10:18:57;;;;;;;16.00;7.32;;;16.50;99.90;;;;;;5025238;28;20037;-72
2022/04/13 10:21:42;;;;;;;18.70;8.38;;;16.50;99.90;;;;;;5003440;28;20041;-71
2022/04/13 10:24:24;;;;;;;15.90;6.03;;;16.60;99.90;;;;;;5010228;28;20049;-72
2022/04/13 10:27:10;;;;;;;17.73;6.60;;;16.60;99.90;;;;;;5008179;28;20181;-71
2022/04/13 10:29:40;;;;;;;14.95;7.00;;;16.50;99.90;;;;;;5004913;28;20121;-71
2022/04/13 10:32:10;;;;;;;13.60;5.80;;;16.40;99.90;;;;;;5023047;28;20046;-72
2022/04/13 10:34:40;;;;;;;15.38;6.18;;;16.40;99.90;;;;;;5007555;28;20051;-71
2022/04/13 10:37:07;;;;;;;20.23;8.68;;;16.40;99.90;;;;;;5005791;28;20064;-71
2022/04/13 10:39:34;;;;;;;14.77;7.53;;;16.50;99.90;;;;;;5007475;28;20152;-71
2022/04/13 10:42:01;;;;;;;21.67;8.20;;;16.50;99.90;;;;;;5025500;28;20042;-71
2022/04/13 10:44:36;;;;;;;16.10;6.93;;;16.50;99.90;;;;;;5024719;28;20489;-71
2022/04/13 10:47:06;;;;;;;16.35;7.35;;;16.50;99.90;;;;;;5005830;28;20037;-71
2022/04/13 10:49:56;;;;;;;18.83;7.82;;;16.60;99.90;;;;;;5009740;28;20037;-70
2022/04/13 10:52:39;;;;;;;17.27;7.93;;;16.70;99.90;;;;;;5005037;28;20048;-70
2022/04/13 10:55:10;;;;;;;16.98;7.28;;;16.70;99.90;;;;;;5006707;28;20080;-71
2022/04/13 10:57:46;;;;;;;16.58;8.50;;;16.70;99.90;;;;;;5006739;28;20489;-71
2022/04/13 11:00:17;;;;;;;19.05;8.77;;;16.70;99.90;;;;;;5007021;28;20046;-71
2022/04/13 11:02:52;;;;;;;17.95;8.77;;;16.70;99.90;;;;;;5024646;28;20048;-71
2022/04/13 11:05:17;;;;;;;16.10;8.43;;;16.60;99.90;;;;;;5025201;28;20559;-71
2022/04/13 11:07:44;;;;;;;20.20;9.43;;;16.60;99.90;;;;;;5008286;28;20069;-72
2022/04/13 11:10:16;;;;;;;20.58;8.50;;;16.50;99.90;;;;;;5007788;28;20056;-72
2022/04/13 11:12:43;;;;;;;16.80;9.48;;;16.50;99.90;;;;;;5005726;28;20041;-71
2022/04/13 11:15:09;;;;;;;19.30;9.35;;;16.30;99.90;;;;;;5023411;28;20050;-72
2022/04/13 11:17:43;;;;;;;16.23;8.68;;;16.20;99.90;;;;;;5026942;28;20136;-72
2022/04/13 11:20:21;;;;;;;14.85;7.88;;;16.10;99.90;;;;;;5007261;28;20537;-71
2022/04/13 11:23:18;;;;;;;21.15;8.90;;;16.00;99.90;;;;;;5025967;28;20044;-71
2022/04/13 11:25:54;;;;;;;15.13;9.40;;;15.90;99.90;;;;;;5025350;28;20042;-71
2022/04/13 11:28:38;;;;;;;17.30;9.10;;;15.80;99.90;;;;;;5008997;28;20057;-71
2022/04/13 11:31:08;;;;;;;14.07;8.68;;;15.70;99.90;;;;;;5025471;28;20551;-71
2022/04/13 11:33:51;;;;;;;19.13;9.32;;;15.70;99.90;;;;;;5008677;28;20409;-71
2022/04/13 11:36:18;;;;;;;;;;;15.70;99.90;;;;;;5025583;28;20085;-71
2022/04/13 11:38:51;;;;;;;21.85;8.35;;;15.70;99.90;;;;;;5009406;28;19925;-71
2022/04/13 11:41:17;;;;;;;17.40;8.82;;;15.70;99.90;;;;;;5006838;28;20790;-71
2022/04/13 11:43:44;;;;;;;21.65;10.20;;;15.50;99.90;;;;;;5008170;28;20076;-71
2022/04/13 11:46:41;;;;;;;14.82;9.05;;;15.50;99.90;;;;;;5005369;28;20580;-71
2022/04/13 11:49:10;;;;;;;20.95;9.90;;;15.50;99.90;;;;;;5023248;28;20556;-71
2022/04/13 11:51:37;;;;;;;16.63;9.00;;;15.40;99.90;;;;;;5026582;28;20049;-72
2022/04/13 11:54:08;;;;;;;20.73;9.57;;;15.50;99.90;;;;;;5025959;28;20064;-71
2022/04/13 11:56:35;;;;;;;18.30;8.93;;;15.50;99.90;;;;;;5009039;28;20038;-71
2022/04/13 11:59:01;;;;;;;29.42;10.55;;;15.50;99.90;;;;;;5007531;28;20094;-72
2022/04/13 12:01:27;;;;;;;25.92;10.82;;;15.50;99.90;;;;;;5020892;28;20044;-71
2022/04/13 12:03:55;;;;;;;16.90;10.35;;;15.50;99.90;;;;;;5007518;28;20124;-71
2022/04/13 12:06:25;;;;;;;17.63;10.25;;;15.50;99.90;;;;;;5003730;28;20050;-72
2022/04/13 12:08:55;;;;;;;20.23;9.82;;;15.50;99.90;;;;;;5010560;28;20041;-72
2022/04/13 12:11:41;;;;;;;16.98;9.95;;;15.60;99.90;;;;;;5010864;28;20068;-72
2022/04/13 12:14:11;;;;;;;20.23;10.13;;;15.50;99.90;;;;;;5029592;28;20521;-72
2022/04/13 12:16:38;;;;;;;19.13;11.00;;;15.40;99.90;;;;;;5025172;28;20103;-72
2022/04/13 12:19:10;;;;;;;19.05;10.50;;;15.40;99.90;;;;;;5027596;28;20049;-72
2022/04/13 12:21:38;;;;;;;19.77;10.52;;;15.50;99.90;;;;;;5029742;28;20045;-72
2022/04/13 12:24:06;;;;;;;21.60;9.88;;;15.50;99.90;;;;;;5009535;28;20468;-72
2022/04/13 12:26:41;;;;;;;21.48;10.73;;;15.60;99.90;;;;;;5007683;28;20053;-71
2022/04/13 12:29:20;;;;;;;19.77;10.63;;;15.70;99.90;;;;;;5028181;28;20049;-71
2022/04/13 12:31:51;;;;;;;16.77;10.07;;;15.90;99.90;;;;;;5009412;28;20043;-72